sensor_id;sensor_type;location;lat;lon;timestamp;temperature;humidity
47600;DHT22;33323;52.124;6.018;2022-10-31T00:01:28;12.00;99.90
47600;DHT22;33323;52.124;6.018;2022-10-31T00:03:58;12.10;99.90
47600;DHT22;33323;52.124;6.018;2022-10-31T00:06:25;12.00;99.90
47600;DHT22;33323;52.124;6.018;2022-10-31T00:08:57;12.00;99.90
47600;DHT22;33323;52.124;6.018;2022-10-31T00:11:26;11.90;99.90
47600;DHT22;33323;52.124;6.018;2022-10-31T00:13:53;11.90;99.90
47600;DHT22;33323;52.124;6.018;2022-10-31T00:16:22;11.90;99.90
47600;DHT22;33323;52.124;6.018;2022-10-31T00:18:58;11.90;99.90
47600;DHT22;33323;52.124;6.018;2022-10-31T00:21:26;11.90;99.90
47600;DHT22;33323;52.124;6.018;2022-10-31T00:23:54;11.80;99.90
47600;DHT22;33323;52.124;6.018;2022-10-31T00:26:21;11.90;99.90
47600;DHT22;33323;52.124;6.018;2022-10-31T00:28:48;11.90;99.90
47600;DHT22;33323;52.124;6.018;2022-10-31T00:31:15;11.90;99.90
47600;DHT22;33323;52.124;6.018;2022-10-31T00:33:43;11.90;99.90
47600;DHT22;33323;52.124;6.018;2022-10-31T00:36:15;12.00;99.90
47600;DHT22;33323;52.124;6.018;2022-10-31T00:38:44;12.20;99.90
47600;DHT22;33323;52.124;6.018;2022-10-31T00:41:13;12.30;99.90
47600;DHT22;33323;52.124;6.018;2022-10-31T00:43:43;12.30;99.90
47600;DHT22;33323;52.124;6.018;2022-10-31T00:46:10;12.20;99.90
47600;DHT22;33323;52.124;6.018;2022-10-31T00:48:39;12.20;99.90
47600;DHT22;33323;52.124;6.018;2022-10-31T00:51:08;12.10;99.90
47600;DHT22;33323;52.124;6.018;2022-10-31T00:53:35;12.10;99.90
47600;DHT22;33323;52.124;6.018;2022-10-31T00:56:02;12.00;99.90
47600;DHT22;33323;52.124;6.018;2022-10-31T00:58:29;11.90;99.90
47600;DHT22;33323;52.124;6.018;2022-10-31T01:00:56;11.90;99.90
47600;DHT22;33323;52.124;6.018;2022-10-31T01:03:28;11.90;99.90
47600;DHT22;33323;52.124;6.018;2022-10-31T01:05:58;11.90;99.90
47600;DHT22;33323;52.124;6.018;2022-10-31T01:08:33;11.80;99.90
47600;DHT22;33323;52.124;6.018;2022-10-31T01:11:06;11.80;99.90
47600;DHT22;33323;52.124;6.018;2022-10-31T01:13:40;11.80;99.90
47600;DHT22;33323;52.124;6.018;2022-10-31T01:16:10;11.80;99.90
47600;DHT22;33323;52.124;6.018;2022-10-31T01:18:39;11.90;99.90
47600;DHT22;33323;52.124;6.018;2022-10-31T01:21:14;12.00;99.90
47600;DHT22;33323;52.124;6.018;2022-10-31T01:23:48;12.00;99.90
47600;DHT22;33323;52.124;6.018;2022-10-31T01:26:26;12.00;99.90
47600;DHT22;33323;52.124;6.018;2022-10-31T01:28:56;12.10;99.90
47600;DHT22;33323;52.124;6.018;2022-10-31T01:31:27;12.20;99.90
47600;DHT22;33323;52.124;6.018;2022-10-31T01:33:58;12.30;99.90
47600;DHT22;33323;52.124;6.018;2022-10-31T01:36:28;12.40;99.90
47600;DHT22;33323;52.124;6.018;2022-10-31T01:39:03;12.30;99.90
47600;DHT22;33323;52.124;6.018;2022-10-31T01:41:35;12.30;99.90
47600;DHT22;33323;52.124;6.018;2022-10-31T01:46:56;12.10;99.90
47600;DHT22;33323;52.124;6.018;2022-10-31T01:49:40;12.20;99.90
47600;DHT22;33323;52.124;6.018;2022-10-31T01:52:24;12.20;99.90
47600;DHT22;33323;52.124;6.018;2022-10-31T01:54:59;12.20;99.90
47600;DHT22;33323;52.124;6.018;2022-10-31T01:57:31;12.20;99.90
47600;DHT22;33323;52.124;6.018;2022-10-31T02:00:03;12.10;99.90
47600;DHT22;33323;52.124;6.018;2022-10-31T02:02:39;12.00;99.90
47600;DHT22;33323;52.124;6.018;2022-10-31T02:05:10;11.90;99.90
47600;DHT22;33323;52.124;6.018;2022-10-31T02:07:43;11.70;99.90
47600;DHT22;33323;52.124;6.018;2022-10-31T02:10:15;11.60;99.90
47600;DHT22;33323;52.124;6.018;2022-10-31T02:12:42;11.50;99.90
47600;DHT22;33323;52.124;6.018;2022-10-31T02:15:09;11.50;99.90
47600;DHT22;33323;52.124;6.018;2022-10-31T02:17:36;11.40;99.90
47600;DHT22;33323;52.124;6.018;2022-10-31T02:20:15;11.50;99.90
47600;DHT22;33323;52.124;6.018;2022-10-31T02:31:56;11.20;99.90
47600;DHT22;33323;52.124;6.018;2022-10-31T02:34:44;11.10;99.90
47600;DHT22;33323;52.124;6.018;2022-10-31T02:37:33;11.00;99.90
47600;DHT22;33323;52.124;6.018;2022-10-31T02:40:25;11.00;99.90
47600;DHT22;33323;52.124;6.018;2022-10-31T02:43:28;11.00;99.90
47600;DHT22;33323;52.124;6.018;2022-10-31T02:46:07;11.10;99.90
47600;DHT22;33323;52.124;6.018;2022-10-31T02:48:42;11.20;99.90
47600;DHT22;33323;52.124;6.018;2022-10-31T02:51:11;11.10;99.90
47600;DHT22;33323;52.124;6.018;2022-10-31T02:53:39;11.20;99.90
47600;DHT22;33323;52.124;6.018;2022-10-31T02:56:17;11.20;99.90
47600;DHT22;33323;52.124;6.018;2022-10-31T03:09:51;10.30;99.90
47600;DHT22;33323;52.124;6.018;2022-10-31T03:13:12;10.30;99.90
47600;DHT22;33323;52.124;6.018;2022-10-31T03:15:54;10.30;99.90
47600;DHT22;33323;52.124;6.018;2022-10-31T03:18:33;10.40;99.90
47600;DHT22;33323;52.124;6.018;2022-10-31T03:23:53;10.20;99.90
47600;DHT22;33323;52.124;6.018;2022-10-31T03:26:21;10.10;99.90
47600;DHT22;33323;52.124;6.018;2022-10-31T03:29:04;10.10;99.90
47600;DHT22;33323;52.124;6.018;2022-10-31T03:31:39;10.00;99.90
47600;DHT22;33323;52.124;6.018;2022-10-31T03:34:13;9.90;99.90
47600;DHT22;33323;52.124;6.018;2022-10-31T03:36:44;9.90;99.90
47600;DHT22;33323;52.124;6.018;2022-10-31T03:39:16;9.90;99.90
47600;DHT22;33323;52.124;6.018;2022-10-31T03:41:49;10.00;99.90
47600;DHT22;33323;52.124;6.018;2022-10-31T03:44:21;9.90;99.90
47600;DHT22;33323;52.124;6.018;2022-10-31T03:46:57;9.70;99.90
47600;DHT22;33323;52.124;6.018;2022-10-31T03:49:24;9.60;99.90
47600;DHT22;33323;52.124;6.018;2022-10-31T03:52:01;9.60;99.90
47600;DHT22;33323;52.124;6.018;2022-10-31T03:57:35;9.70;99.90
47600;DHT22;33323;52.124;6.018;2022-10-31T04:00:10;9.80;99.90
47600;DHT22;33323;52.124;6.018;2022-10-31T04:02:53;10.20;99.90
47600;DHT22;33323;52.124;6.018;2022-10-31T04:05:27;10.40;99.90
47600;DHT22;33323;52.124;6.018;2022-10-31T04:08:00;10.00;99.90
47600;DHT22;33323;52.124;6.018;2022-10-31T04:10:31;9.80;99.90
47600;DHT22;33323;52.124;6.018;2022-10-31T04:13:04;9.60;99.90
47600;DHT22;33323;52.124;6.018;2022-10-31T04:15:45;9.40;99.90
47600;DHT22;33323;52.124;6.018;2022-10-31T04:18:15;9.30;99.90
47600;DHT22;33323;52.124;6.018;2022-10-31T04:20:42;9.30;99.90
47600;DHT22;33323;52.124;6.018;2022-10-31T04:23:24;9.20;99.90
47600;DHT22;33323;52.124;6.018;2022-10-31T04:25:52;9.20;99.90
47600;DHT22;33323;52.124;6.018;2022-10-31T04:28:20;9.10;99.90
47600;DHT22;33323;52.124;6.018;2022-10-31T04:30:47;9.10;99.90
47600;DHT22;33323;52.124;6.018;2022-10-31T04:33:16;9.00;99.90
47600;DHT22;33323;52.124;6.018;2022-10-31T04:35:45;8.90;99.90
47600;DHT22;33323;52.124;6.018;2022-10-31T04:38:12;8.90;99.90
47600;DHT22;33323;52.124;6.018;2022-10-31T04:40:40;9.20;99.90
47600;DHT22;33323;52.124;6.018;2022-10-31T04:43:27;9.10;99.90
47600;DHT22;33323;52.124;6.018;2022-10-31T04:45:54;9.00;99.90
47600;DHT22;33323;52.124;6.018;2022-10-31T04:48:21;8.80;99.90
47600;DHT22;33323;52.124;6.018;2022-10-31T04:50:49;8.90;99.90
47600;DHT22;33323;52.124;6.018;2022-10-31T04:53:16;8.80;99.90
47600;DHT22;33323;52.124;6.018;2022-10-31T04:56:06;8.90;99.90
47600;DHT22;33323;52.124;6.018;2022-10-31T04:58:41;8.90;99.90
47600;DHT22;33323;52.124;6.018;2022-10-31T05:01:09;8.80;99.90
47600;DHT22;33323;52.124;6.018;2022-10-31T05:03:36;8.80;99.90
47600;DHT22;33323;52.124;6.018;2022-10-31T05:06:06;8.70;99.90
47600;DHT22;33323;52.124;6.018;2022-10-31T05:08:35;8.70;99.90
47600;DHT22;33323;52.124;6.018;2022-10-31T05:11:06;8.70;99.90
47600;DHT22;33323;52.124;6.018;2022-10-31T05:13:33;8.80;99.90
47600;DHT22;33323;52.124;6.018;2022-10-31T05:16:12;8.90;99.90
47600;DHT22;33323;52.124;6.018;2022-10-31T05:18:57;8.80;99.90
47600;DHT22;33323;52.124;6.018;2022-10-31T05:22:02;8.70;99.90
47600;DHT22;33323;52.124;6.018;2022-10-31T05:24:32;8.50;99.90
47600;DHT22;33323;52.124;6.018;2022-10-31T05:26:59;8.50;99.90
47600;DHT22;33323;52.124;6.018;2022-10-31T05:29:26;8.50;99.90
47600;DHT22;33323;52.124;6.018;2022-10-31T05:31:53;8.50;99.90
47600;DHT22;33323;52.124;6.018;2022-10-31T05:34:49;8.50;99.90
47600;DHT22;33323;52.124;6.018;2022-10-31T05:37:43;8.50;99.90
47600;DHT22;33323;52.124;6.018;2022-10-31T05:40:13;8.50;99.90
47600;DHT22;33323;52.124;6.018;2022-10-31T05:42:43;8.40;99.90
47600;DHT22;33323;52.124;6.018;2022-10-31T05:45:14;8.40;99.90
47600;DHT22;33323;52.124;6.018;2022-10-31T05:48:08;8.40;99.90
47600;DHT22;33323;52.124;6.018;2022-10-31T05:50:53;8.50;99.90
47600;DHT22;33323;52.124;6.018;2022-10-31T05:53:22;8.50;99.90
47600;DHT22;33323;52.124;6.018;2022-10-31T05:55:49;8.60;99.90
47600;DHT22;33323;52.124;6.018;2022-10-31T05:58:18;8.60;99.90
47600;DHT22;33323;52.124;6.018;2022-10-31T06:00:58;8.80;99.90
47600;DHT22;33323;52.124;6.018;2022-10-31T06:03:25;8.80;99.90
47600;DHT22;33323;52.124;6.018;2022-10-31T06:05:55;8.90;99.90
47600;DHT22;33323;52.124;6.018;2022-10-31T06:08:30;8.90;99.90
47600;DHT22;33323;52.124;6.018;2022-10-31T06:11:01;8.90;99.90
47600;DHT22;33323;52.124;6.018;2022-10-31T06:13:46;9.00;99.90
47600;DHT22;33323;52.124;6.018;2022-10-31T06:16:19;9.00;99.90
47600;DHT22;33323;52.124;6.018;2022-10-31T06:18:47;9.00;99.90
47600;DHT22;33323;52.124;6.018;2022-10-31T06:21:14;9.20;99.90
47600;DHT22;33323;52.124;6.018;2022-10-31T06:23:45;9.20;99.90
47600;DHT22;33323;52.124;6.018;2022-10-31T06:26:32;9.10;99.90
47600;DHT22;33323;52.124;6.018;2022-10-31T06:28:59;9.00;99.90
47600;DHT22;33323;52.124;6.018;2022-10-31T06:31:58;9.00;99.90
47600;DHT22;33323;52.124;6.018;2022-10-31T06:34:27;8.90;99.90
47600;DHT22;33323;52.124;6.018;2022-10-31T06:36:54;8.90;99.90
47600;DHT22;33323;52.124;6.018;2022-10-31T06:39:24;8.90;99.90
47600;DHT22;33323;52.124;6.018;2022-10-31T06:41:52;8.80;99.90
47600;DHT22;33323;52.124;6.018;2022-10-31T06:44:20;8.90;99.90
47600;DHT22;33323;52.124;6.018;2022-10-31T06:46:54;9.00;99.90
47600;DHT22;33323;52.124;6.018;2022-10-31T06:49:45;8.90;99.90
47600;DHT22;33323;52.124;6.018;2022-10-31T06:52:15;8.80;99.90
47600;DHT22;33323;52.124;6.018;2022-10-31T06:54:42;8.70;99.90
47600;DHT22;33323;52.124;6.018;2022-10-31T06:57:09;8.70;99.90
47600;DHT22;33323;52.124;6.018;2022-10-31T06:59:37;8.70;99.90
47600;DHT22;33323;52.124;6.018;2022-10-31T07:02:19;8.70;99.90
47600;DHT22;33323;52.124;6.018;2022-10-31T07:04:48;8.70;99.90
47600;DHT22;33323;52.124;6.018;2022-10-31T07:07:16;8.80;99.90
47600;DHT22;33323;52.124;6.018;2022-10-31T07:09:44;8.70;99.90
47600;DHT22;33323;52.124;6.018;2022-10-31T07:12:15;8.70;99.90
47600;DHT22;33323;52.124;6.018;2022-10-31T07:14:51;8.70;99.90
47600;DHT22;33323;52.124;6.018;2022-10-31T07:17:19;8.80;99.90
47600;DHT22;33323;52.124;6.018;2022-10-31T07:19:46;8.90;99.90
47600;DHT22;33323;52.124;6.018;2022-10-31T07:22:15;9.00;99.90
47600;DHT22;33323;52.124;6.018;2022-10-31T07:24:43;9.10;99.90
47600;DHT22;33323;52.124;6.018;2022-10-31T07:27:38;9.20;99.90
47600;DHT22;33323;52.124;6.018;2022-10-31T07:30:10;9.50;99.90
47600;DHT22;33323;52.124;6.018;2022-10-31T07:32:39;9.70;99.90
47600;DHT22;33323;52.124;6.018;2022-10-31T07:35:08;10.00;99.90
47600;DHT22;33323;52.124;6.018;2022-10-31T07:37:46;10.50;99.90
47600;DHT22;33323;52.124;6.018;2022-10-31T07:40:15;10.80;99.90
47600;DHT22;33323;52.124;6.018;2022-10-31T07:42:48;11.40;99.90
47600;DHT22;33323;52.124;6.018;2022-10-31T07:45:34;11.50;99.90
47600;DHT22;33323;52.124;6.018;2022-10-31T07:48:20;11.40;99.90
47600;DHT22;33323;52.124;6.018;2022-10-31T07:51:07;11.40;99.90
47600;DHT22;33323;52.124;6.018;2022-10-31T07:54:03;11.30;99.90
47600;DHT22;33323;52.124;6.018;2022-10-31T07:56:31;11.40;99.90
47600;DHT22;33323;52.124;6.018;2022-10-31T07:58:58;11.70;99.90
47600;DHT22;33323;52.124;6.018;2022-10-31T08:01:26;12.10;99.90
47600;DHT22;33323;52.124;6.018;2022-10-31T08:04:12;12.40;99.90
47600;DHT22;33323;52.124;6.018;2022-10-31T08:06:59;12.80;99.90
47600;DHT22;33323;52.124;6.018;2022-10-31T08:09:31;12.80;99.90
47600;DHT22;33323;52.124;6.018;2022-10-31T08:12:02;13.10;99.90
47600;DHT22;33323;52.124;6.018;2022-10-31T08:14:30;13.50;99.90
47600;DHT22;33323;52.124;6.018;2022-10-31T08:16:57;14.20;99.90
47600;DHT22;33323;52.124;6.018;2022-10-31T08:19:32;14.80;99.90
47600;DHT22;33323;52.124;6.018;2022-10-31T08:22:00;15.10;99.90
47600;DHT22;33323;52.124;6.018;2022-10-31T08:24:27;15.40;99.90
47600;DHT22;33323;52.124;6.018;2022-10-31T08:26:57;15.70;99.90
47600;DHT22;33323;52.124;6.018;2022-10-31T08:29:24;15.90;99.90
47600;DHT22;33323;52.124;6.018;2022-10-31T08:31:51;16.10;99.90
47600;DHT22;33323;52.124;6.018;2022-10-31T08:34:36;16.60;99.90
47600;DHT22;33323;52.124;6.018;2022-10-31T08:37:22;16.90;99.70
47600;DHT22;33323;52.124;6.018;2022-10-31T08:39:53;16.90;99.30
47600;DHT22;33323;52.124;6.018;2022-10-31T08:42:21;16.40;99.90
47600;DHT22;33323;52.124;6.018;2022-10-31T08:44:48;15.70;99.90
47600;DHT22;33323;52.124;6.018;2022-10-31T08:47:19;15.30;99.90
47600;DHT22;33323;52.124;6.018;2022-10-31T08:49:47;15.10;99.90
47600;DHT22;33323;52.124;6.018;2022-10-31T08:52:14;15.00;99.90
47600;DHT22;33323;52.124;6.018;2022-10-31T08:54:43;15.10;99.90
47600;DHT22;33323;52.124;6.018;2022-10-31T08:57:42;15.30;99.90
47600;DHT22;33323;52.124;6.018;2022-10-31T09:00:11;15.50;99.90
47600;DHT22;33323;52.124;6.018;2022-10-31T09:03:12;15.90;99.90
47600;DHT22;33323;52.124;6.018;2022-10-31T09:05:42;16.20;99.90
47600;DHT22;33323;52.124;6.018;2022-10-31T09:08:11;16.40;99.90
47600;DHT22;33323;52.124;6.018;2022-10-31T09:10:43;16.20;99.90
47600;DHT22;33323;52.124;6.018;2022-10-31T09:13:16;16.00;99.90
47600;DHT22;33323;52.124;6.018;2022-10-31T09:16:06;16.20;99.90
47600;DHT22;33323;52.124;6.018;2022-10-31T09:18:34;16.20;99.90
47600;DHT22;33323;52.124;6.018;2022-10-31T09:21:01;16.00;99.90
47600;DHT22;33323;52.124;6.018;2022-10-31T09:23:29;15.60;99.90
47600;DHT22;33323;52.124;6.018;2022-10-31T09:26:00;15.50;99.90
47600;DHT22;33323;52.124;6.018;2022-10-31T09:28:40;15.50;99.90
47600;DHT22;33323;52.124;6.018;2022-10-31T09:31:12;15.60;99.90
47600;DHT22;33323;52.124;6.018;2022-10-31T09:34:02;15.60;99.90
47600;DHT22;33323;52.124;6.018;2022-10-31T09:36:37;15.60;99.90
47600;DHT22;33323;52.124;6.018;2022-10-31T09:39:18;15.70;99.90
47600;DHT22;33323;52.124;6.018;2022-10-31T09:47:52;15.30;99.90
47600;DHT22;33323;52.124;6.018;2022-10-31T09:54:10;15.40;99.90
47600;DHT22;33323;52.124;6.018;2022-10-31T09:56:40;15.50;99.90
47600;DHT22;33323;52.124;6.018;2022-10-31T09:59:30;15.50;99.90
47600;DHT22;33323;52.124;6.018;2022-10-31T10:02:23;15.40;99.90
47600;DHT22;33323;52.124;6.018;2022-10-31T10:05:13;15.50;99.90
47600;DHT22;33323;52.124;6.018;2022-10-31T10:11:27;15.30;99.90
47600;DHT22;33323;52.124;6.018;2022-10-31T10:22:42;15.40;99.90
47600;DHT22;33323;52.124;6.018;2022-10-31T10:25:14;15.40;99.90
47600;DHT22;33323;52.124;6.018;2022-10-31T10:28:36;15.40;99.90
47600;DHT22;33323;52.124;6.018;2022-10-31T10:30:53;15.40;99.90
47600;DHT22;33323;52.124;6.018;2022-10-31T10:33:38;15.30;99.90
47600;DHT22;33323;52.124;6.018;2022-10-31T10:36:21;15.30;99.90
47600;DHT22;33323;52.124;6.018;2022-10-31T10:39:19;15.40;99.90
47600;DHT22;33323;52.124;6.018;2022-10-31T10:41:48;15.40;99.90
47600;DHT22;33323;52.124;6.018;2022-10-31T10:44:45;15.40;99.90
47600;DHT22;33323;52.124;6.018;2022-10-31T10:47:42;15.60;99.90
47600;DHT22;33323;52.124;6.018;2022-10-31T10:50:27;15.60;99.90
47600;DHT22;33323;52.124;6.018;2022-10-31T10:56:08;15.70;99.90
47600;DHT22;33323;52.124;6.018;2022-10-31T10:58:56;15.70;99.90
47600;DHT22;33323;52.124;6.018;2022-10-31T11:01:24;15.60;99.90
47600;DHT22;33323;52.124;6.018;2022-10-31T11:03:52;15.70;99.90
47600;DHT22;33323;52.124;6.018;2022-10-31T11:06:22;15.60;99.90
47600;DHT22;33323;52.124;6.018;2022-10-31T11:08:53;15.60;99.90
47600;DHT22;33323;52.124;6.018;2022-10-31T11:11:30;15.70;99.90
47600;DHT22;33323;52.124;6.018;2022-10-31T11:14:13;15.80;99.90
47600;DHT22;33323;52.124;6.018;2022-10-31T11:16:45;15.90;99.90
47600;DHT22;33323;52.124;6.018;2022-10-31T11:19:19;16.10;99.90
47600;DHT22;33323;52.124;6.018;2022-10-31T11:21:53;16.20;99.90
47600;DHT22;33323;52.124;6.018;2022-10-31T11:24:24;16.30;99.90
47600;DHT22;33323;52.124;6.018;2022-10-31T11:27:09;16.30;99.90
47600;DHT22;33323;52.124;6.018;2022-10-31T11:29:40;16.40;99.90
47600;DHT22;33323;52.124;6.018;2022-10-31T11:32:26;16.60;99.90
47600;DHT22;33323;52.124;6.018;2022-10-31T11:34:58;16.70;99.90
47600;DHT22;33323;52.124;6.018;2022-10-31T11:37:29;16.80;99.90
47600;DHT22;33323;52.124;6.018;2022-10-31T11:40:04;16.70;99.90
47600;DHT22;33323;52.124;6.018;2022-10-31T11:42:40;16.80;99.90
47600;DHT22;33323;52.124;6.018;2022-10-31T11:47:54;16.70;99.90
47600;DHT22;33323;52.124;6.018;2022-10-31T11:50:40;16.50;99.90
47600;DHT22;33323;52.124;6.018;2022-10-31T11:53:16;16.40;99.90
47600;DHT22;33323;52.124;6.018;2022-10-31T11:55:45;16.40;99.90
47600;DHT22;33323;52.124;6.018;2022-10-31T11:58:24;16.40;99.90
47600;DHT22;33323;52.124;6.018;2022-10-31T12:00:56;16.30;99.90
47600;DHT22;33323;52.124;6.018;2022-10-31T12:03:41;16.40;99.90
47600;DHT22;33323;52.124;6.018;2022-10-31T12:06:36;16.30;99.90
47600;DHT22;33323;52.124;6.018;2022-10-31T12:09:21;16.40;99.90
47600;DHT22;33323;52.124;6.018;2022-10-31T12:20:44;16.50;99.90
47600;DHT22;33323;52.124;6.018;2022-10-31T12:23:28;16.60;99.90
47600;DHT22;33323;52.124;6.018;2022-10-31T12:26:32;16.60;99.90
47600;DHT22;33323;52.124;6.018;2022-10-31T12:35:23;16.90;99.90
47600;DHT22;33323;52.124;6.018;2022-10-31T12:38:10;16.70;99.90
47600;DHT22;33323;52.124;6.018;2022-10-31T12:41:03;16.80;99.90
47600;DHT22;33323;52.124;6.018;2022-10-31T12:44:00;16.80;99.90
47600;DHT22;33323;52.124;6.018;2022-10-31T12:58:32;16.70;99.90
47600;DHT22;33323;52.124;6.018;2022-10-31T13:01:27;16.60;99.90
47600;DHT22;33323;52.124;6.018;2022-10-31T13:03:58;16.60;99.90
47600;DHT22;33323;52.124;6.018;2022-10-31T13:06:37;16.60;99.90
47600;DHT22;33323;52.124;6.018;2022-10-31T13:09:15;16.60;99.90
47600;DHT22;33323;52.124;6.018;2022-10-31T13:11:58;16.70;99.90
47600;DHT22;33323;52.124;6.018;2022-10-31T13:14:42;16.80;99.90
47600;DHT22;33323;52.124;6.018;2022-10-31T13:17:39;16.80;99.90
47600;DHT22;33323;52.124;6.018;2022-10-31T13:20:18;16.80;99.90
47600;DHT22;33323;52.124;6.018;2022-10-31T13:26:09;16.90;99.90
47600;DHT22;33323;52.124;6.018;2022-10-31T13:31:13;17.20;99.90
47600;DHT22;33323;52.124;6.018;2022-10-31T13:36:39;17.20;99.90
47600;DHT22;33323;52.124;6.018;2022-10-31T13:43:00;17.20;99.90
47600;DHT22;33323;52.124;6.018;2022-10-31T13:45:32;17.20;99.90
47600;DHT22;33323;52.124;6.018;2022-10-31T13:48:01;17.20;99.90
47600;DHT22;33323;52.124;6.018;2022-10-31T13:51:00;17.10;99.90
47600;DHT22;33323;52.124;6.018;2022-10-31T13:53:59;17.10;99.90
47600;DHT22;33323;52.124;6.018;2022-10-31T13:56:49;17.00;99.90
47600;DHT22;33323;52.124;6.018;2022-10-31T13:59:21;17.00;99.90
47600;DHT22;33323;52.124;6.018;2022-10-31T14:01:56;17.10;99.90
47600;DHT22;33323;52.124;6.018;2022-10-31T14:04:52;17.20;99.90
47600;DHT22;33323;52.124;6.018;2022-10-31T14:07:23;17.10;99.90
47600;DHT22;33323;52.124;6.018;2022-10-31T14:12:38;17.10;99.90
47600;DHT22;33323;52.124;6.018;2022-10-31T14:15:20;17.10;99.90
47600;DHT22;33323;52.124;6.018;2022-10-31T14:17:52;17.10;99.90
47600;DHT22;33323;52.124;6.018;2022-10-31T14:20:34;17.10;99.90
47600;DHT22;33323;52.124;6.018;2022-10-31T14:31:54;16.90;99.90
47600;DHT22;33323;52.124;6.018;2022-10-31T14:34:27;16.80;99.90
47600;DHT22;33323;52.124;6.018;2022-10-31T14:40:25;16.80;99.90
47600;DHT22;33323;52.124;6.018;2022-10-31T14:51:50;16.70;99.90
47600;DHT22;33323;52.124;6.018;2022-10-31T14:54:30;16.70;99.90
47600;DHT22;33323;52.124;6.018;2022-10-31T14:57:16;16.60;99.90
47600;DHT22;33323;52.124;6.018;2022-10-31T14:59:54;16.60;99.90
47600;DHT22;33323;52.124;6.018;2022-10-31T15:02:37;16.60;99.90
47600;DHT22;33323;52.124;6.018;2022-10-31T15:05:31;16.60;99.90
47600;DHT22;33323;52.124;6.018;2022-10-31T15:08:00;16.50;99.90
47600;DHT22;33323;52.124;6.018;2022-10-31T15:10:32;16.50;99.90
47600;DHT22;33323;52.124;6.018;2022-10-31T15:15:53;16.50;99.90
47600;DHT22;33323;52.124;6.018;2022-10-31T15:18:25;16.50;99.90
47600;DHT22;33323;52.124;6.018;2022-10-31T15:20:55;16.50;99.90
47600;DHT22;33323;52.124;6.018;2022-10-31T15:23:28;16.40;99.90
47600;DHT22;33323;52.124;6.018;2022-10-31T15:25:59;16.30;99.90
47600;DHT22;33323;52.124;6.018;2022-10-31T15:28:28;16.30;99.90
47600;DHT22;33323;52.124;6.018;2022-10-31T15:30:57;16.30;99.90
47600;DHT22;33323;52.124;6.018;2022-10-31T15:33:39;16.30;99.90
47600;DHT22;33323;52.124;6.018;2022-10-31T15:36:21;16.20;99.90
47600;DHT22;33323;52.124;6.018;2022-10-31T15:38:57;16.10;99.90
47600;DHT22;33323;52.124;6.018;2022-10-31T15:41:32;16.10;99.90
47600;DHT22;33323;52.124;6.018;2022-10-31T15:44:07;16.10;99.90
47600;DHT22;33323;52.124;6.018;2022-10-31T15:46:39;16.10;99.90
47600;DHT22;33323;52.124;6.018;2022-10-31T15:49:25;16.10;99.90
47600;DHT22;33323;52.124;6.018;2022-10-31T15:52:28;16.10;99.90
47600;DHT22;33323;52.124;6.018;2022-10-31T15:55:03;16.00;99.90
47600;DHT22;33323;52.124;6.018;2022-10-31T15:57:32;16.00;99.90
47600;DHT22;33323;52.124;6.018;2022-10-31T16:00:00;16.00;99.90
47600;DHT22;33323;52.124;6.018;2022-10-31T16:02:27;16.00;99.90
47600;DHT22;33323;52.124;6.018;2022-10-31T16:05:01;16.10;99.90
47600;DHT22;33323;52.124;6.018;2022-10-31T16:07:29;16.00;99.90
47600;DHT22;33323;52.124;6.018;2022-10-31T16:09:58;15.90;99.90
47600;DHT22;33323;52.124;6.018;2022-10-31T16:12:34;15.80;99.90
47600;DHT22;33323;52.124;6.018;2022-10-31T16:15:04;15.80;99.90
47600;DHT22;33323;52.124;6.018;2022-10-31T16:17:31;15.70;99.90
47600;DHT22;33323;52.124;6.018;2022-10-31T16:20:01;15.70;99.90
47600;DHT22;33323;52.124;6.018;2022-10-31T16:22:35;15.70;99.90
47600;DHT22;33323;52.124;6.018;2022-10-31T16:25:12;15.80;99.90
47600;DHT22;33323;52.124;6.018;2022-10-31T16:27:48;15.80;99.90
47600;DHT22;33323;52.124;6.018;2022-10-31T16:30:43;15.70;99.90
47600;DHT22;33323;52.124;6.018;2022-10-31T16:35:48;15.60;99.90
47600;DHT22;33323;52.124;6.018;2022-10-31T16:38:16;15.60;99.90
47600;DHT22;33323;52.124;6.018;2022-10-31T16:40:44;15.50;99.90
47600;DHT22;33323;52.124;6.018;2022-10-31T16:43:13;15.50;99.90
47600;DHT22;33323;52.124;6.018;2022-10-31T16:45:49;15.40;99.90
47600;DHT22;33323;52.124;6.018;2022-10-31T16:48:19;15.40;99.90
47600;DHT22;33323;52.124;6.018;2022-10-31T16:50:49;15.50;99.90
47600;DHT22;33323;52.124;6.018;2022-10-31T16:53:16;16.10;99.90
47600;DHT22;33323;52.124;6.018;2022-10-31T16:56:01;16.80;99.90
47600;DHT22;33323;52.124;6.018;2022-10-31T16:58:31;17.10;99.90
47600;DHT22;33323;52.124;6.018;2022-10-31T17:01:00;17.40;99.90
47600;DHT22;33323;52.124;6.018;2022-10-31T17:03:28;17.20;99.90
47600;DHT22;33323;52.124;6.018;2022-10-31T17:05:56;17.00;99.90
47600;DHT22;33323;52.124;6.018;2022-10-31T17:08:23;16.70;99.90
47600;DHT22;33323;52.124;6.018;2022-10-31T17:10:52;16.40;99.90
47600;DHT22;33323;52.124;6.018;2022-10-31T17:13:23;16.10;99.90
47600;DHT22;33323;52.124;6.018;2022-10-31T17:15:54;16.00;99.90
47600;DHT22;33323;52.124;6.018;2022-10-31T17:18:22;15.70;99.90
47600;DHT22;33323;52.124;6.018;2022-10-31T17:20:58;15.50;99.90
47600;DHT22;33323;52.124;6.018;2022-10-31T17:23:26;15.30;99.90
47600;DHT22;33323;52.124;6.018;2022-10-31T17:25:55;15.50;99.90
47600;DHT22;33323;52.124;6.018;2022-10-31T17:28:22;15.90;99.90
47600;DHT22;33323;52.124;6.018;2022-10-31T17:30:50;16.00;99.90
47600;DHT22;33323;52.124;6.018;2022-10-31T17:33:17;15.90;99.90
47600;DHT22;33323;52.124;6.018;2022-10-31T17:35:44;15.80;99.90
47600;DHT22;33323;52.124;6.018;2022-10-31T17:38:12;15.70;99.90
47600;DHT22;33323;52.124;6.018;2022-10-31T17:40:40;15.60;99.90
47600;DHT22;33323;52.124;6.018;2022-10-31T17:43:10;15.40;99.90
47600;DHT22;33323;52.124;6.018;2022-10-31T17:45:39;15.20;99.90
47600;DHT22;33323;52.124;6.018;2022-10-31T17:48:10;15.10;99.90
47600;DHT22;33323;52.124;6.018;2022-10-31T17:50:38;14.90;99.90
47600;DHT22;33323;52.124;6.018;2022-10-31T17:53:05;14.80;99.90
47600;DHT22;33323;52.124;6.018;2022-10-31T17:55:32;14.80;99.90
47600;DHT22;33323;52.124;6.018;2022-10-31T17:58:03;14.60;99.90
47600;DHT22;33323;52.124;6.018;2022-10-31T18:00:31;14.70;99.90
47600;DHT22;33323;52.124;6.018;2022-10-31T18:03:00;14.70;99.90
47600;DHT22;33323;52.124;6.018;2022-10-31T18:05:28;14.50;99.90
47600;DHT22;33323;52.124;6.018;2022-10-31T18:07:55;14.40;99.90
47600;DHT22;33323;52.124;6.018;2022-10-31T18:10:29;14.40;99.90
47600;DHT22;33323;52.124;6.018;2022-10-31T18:12:56;14.30;99.90
47600;DHT22;33323;52.124;6.018;2022-10-31T18:15:23;14.30;99.90
47600;DHT22;33323;52.124;6.018;2022-10-31T18:17:50;14.20;99.90
47600;DHT22;33323;52.124;6.018;2022-10-31T18:20:17;14.00;99.90
47600;DHT22;33323;52.124;6.018;2022-10-31T18:22:44;13.90;99.90
47600;DHT22;33323;52.124;6.018;2022-10-31T18:25:11;13.90;99.90
47600;DHT22;33323;52.124;6.018;2022-10-31T18:27:38;13.80;99.90